createdAt,value
2022-08-22T00:00:15.227Z,11.80
2022-08-22T00:03:11.734Z,14.50
2022-08-22T00:03:26.059Z,11.70
2022-08-22T00:06:20.508Z,11.60
2022-08-22T00:08:59.268Z,11.60
2022-08-22T00:11:53.225Z,11.60
2022-08-22T00:14:43.001Z,11.52
2022-08-22T00:17:45.312Z,11.50
2022-08-22T00:20:43.604Z,11.46
2022-08-22T00:23:58.288Z,11.40
2022-08-22T00:27:07.295Z,11.40
2022-08-22T00:30:09.097Z,11.38
2022-08-22T00:32:48.852Z,11.40
2022-08-22T00:35:31.860Z,11.40
2022-08-22T00:38:13.485Z,11.40
2022-08-22T00:41:03.927Z,11.40
2022-08-22T00:44:03.381Z,11.38
2022-08-22T00:47:03.493Z,11.30
2022-08-22T00:49:41.995Z,11.34
2022-08-22T00:53:15.606Z,11.30
2022-08-22T00:56:30.849Z,11.30
2022-08-22T00:59:29.322Z,11.20
2022-08-22T01:02:47.127Z,11.20
2022-08-22T01:05:55.231Z,11.10
2022-08-22T01:09:16.096Z,11.00
2022-08-22T01:12:02.669Z,11.00
2022-08-22T01:14:45.696Z,10.92
2022-08-22T01:17:41.374Z,10.90
2022-08-22T01:20:59.458Z,10.80
2022-08-22T01:23:56.574Z,10.78
2022-08-22T01:26:49.591Z,10.70
2022-08-22T01:29:51.133Z,10.70
2022-08-22T01:32:48.229Z,10.70
2022-08-22T01:35:32.851Z,10.62
2022-08-22T01:38:29.459Z,10.70
2022-08-22T01:41:17.615Z,10.70
2022-08-22T01:44:23.250Z,10.80
2022-08-22T01:47:11.462Z,10.80
2022-08-22T01:50:05.020Z,10.80
2022-08-22T01:53:14.588Z,10.72
2022-08-22T01:56:09.861Z,10.70
2022-08-22T01:59:17.603Z,10.60
2022-08-22T02:02:11.693Z,10.60
2022-08-22T02:04:55.478Z,10.70
2022-08-22T02:08:02.341Z,10.60
2022-08-22T02:11:01.906Z,10.60
2022-08-22T02:14:03.441Z,10.54
2022-08-22T02:16:31.230Z,10.50
2022-08-22T02:19:14.246Z,10.60
2022-08-22T02:22:21.556Z,10.60
2022-08-22T02:25:19.685Z,10.56
2022-08-22T02:28:01.065Z,10.50
2022-08-22T02:30:55.041Z,10.48
2022-08-22T02:34:00.305Z,10.40
2022-08-22T02:36:48.472Z,10.30
2022-08-22T02:39:42.482Z,10.20
2022-08-22T02:42:26.970Z,10.10
2022-08-22T02:45:23.041Z,10.20
2022-08-22T02:48:18.717Z,10.20
2022-08-22T02:51:36.170Z,10.30
2022-08-22T02:54:26.638Z,10.40
2022-08-22T02:57:39.560Z,10.40
2022-08-22T03:00:32.490Z,10.30
2022-08-22T03:03:29.126Z,10.22
2022-08-22T03:06:05.544Z,10.30
2022-08-22T03:09:00.126Z,10.30
2022-08-22T03:11:35.679Z,10.30
2022-08-22T03:14:26.410Z,10.20
2022-08-22T03:17:47.932Z,10.14
2022-08-22T03:20:35.931Z,10.00
2022-08-22T03:23:28.324Z,9.94
2022-08-22T03:26:23.392Z,9.90
2022-08-22T03:29:10.087Z,9.90
2022-08-22T03:32:06.408Z,9.90
2022-08-22T03:34:36.296Z,9.90
2022-08-22T03:37:25.883Z,10.00
2022-08-22T03:40:34.428Z,10.00
2022-08-22T03:43:54.817Z,10.00
2022-08-22T03:46:54.334Z,9.92
2022-08-22T03:49:31.130Z,9.90
2022-08-22T03:53:15.547Z,9.90
2022-08-22T03:56:28.085Z,9.80
2022-08-22T03:59:40.711Z,9.80
2022-08-22T04:02:42.953Z,9.80
2022-08-22T04:05:17.367Z,9.80
2022-08-22T04:08:07.861Z,9.80
2022-08-22T04:11:18.864Z,9.80
2022-08-22T04:14:14.275Z,9.70
2022-08-22T04:17:01.152Z,9.70
2022-08-22T04:20:09.497Z,9.70
2022-08-22T04:23:18.681Z,9.70
2022-08-22T04:26:12.078Z,9.70
2022-08-22T04:28:58.962Z,9.70
2022-08-22T04:31:41.517Z,9.70
2022-08-22T04:34:37.697Z,9.70
2022-08-22T04:37:41.642Z,9.62
2022-08-22T04:40:36.957Z,9.60
2022-08-22T04:43:27.077Z,9.60
2022-08-22T04:46:08.169Z,9.60
2022-08-22T04:48:48.007Z,9.70
2022-08-22T04:51:36.213Z,9.80
2022-08-22T04:54:15.697Z,9.80
2022-08-22T04:57:20.798Z,9.80
2022-08-22T04:59:51.088Z,9.76
2022-08-22T05:02:27.620Z,9.70
2022-08-22T05:05:13.434Z,9.80
2022-08-22T05:08:01.395Z,9.90
2022-08-22T05:10:41.073Z,9.90
2022-08-22T05:13:32.773Z,9.92
2022-08-22T05:16:11.533Z,10.00
2022-08-22T05:18:51.441Z,10.00
2022-08-22T05:21:31.245Z,10.10
2022-08-22T05:24:11.679Z,10.10
2022-08-22T05:26:48.331Z,10.12
2022-08-22T05:29:27.509Z,10.20
2022-08-22T05:32:07.856Z,10.20
2022-08-22T05:34:41.005Z,10.30
2022-08-22T05:37:24.213Z,10.30
2022-08-22T05:39:59.331Z,10.40
2022-08-22T05:42:32.949Z,10.48
2022-08-22T05:45:05.418Z,10.50
2022-08-22T05:47:52.934Z,10.60
2022-08-22T05:50:58.547Z,10.60
2022-08-22T05:53:47.937Z,10.60
2022-08-22T05:56:37.634Z,10.60
2022-08-22T05:59:29.148Z,10.70
2022-08-22T06:02:22.273Z,10.80
2022-08-22T06:04:59.543Z,10.90
2022-08-22T06:07:45.462Z,10.92
2022-08-22T06:10:48.141Z,11.00
2022-08-22T06:13:32.590Z,11.04
2022-08-22T06:16:40.894Z,11.20
2022-08-22T06:19:20.264Z,11.30
2022-08-22T06:21:52.017Z,11.30
2022-08-22T06:24:27.478Z,11.40
2022-08-22T06:27:09.123Z,11.50
2022-08-22T06:29:43.377Z,11.60
2022-08-22T06:32:44.466Z,11.64
2022-08-22T06:35:24.666Z,11.70
2022-08-22T06:37:59.903Z,11.80
2022-08-22T06:40:29.546Z,11.90
2022-08-22T06:42:58.964Z,12.00
2022-08-22T06:45:32.191Z,12.10
2022-08-22T06:48:06.180Z,12.10
2022-08-22T06:50:45.330Z,12.20
2022-08-22T06:53:40.331Z,12.24
2022-08-22T06:56:29.682Z,12.40
2022-08-22T06:59:03.146Z,12.48
2022-08-22T07:01:45.367Z,12.52
2022-08-22T07:04:14.073Z,12.62
2022-08-22T07:06:50.371Z,12.70
2022-08-22T07:09:55.413Z,12.82
2022-08-22T07:12:35.342Z,13.00
2022-08-22T07:15:42.235Z,13.04
2022-08-22T07:18:20.785Z,13.10
2022-08-22T07:20:57.084Z,13.20
2022-08-22T07:23:34.678Z,13.30
2022-08-22T07:26:33.684Z,13.30
2022-08-22T07:29:25.849Z,13.40
2022-08-22T07:32:03.192Z,13.50
2022-08-22T07:34:53.746Z,13.60
2022-08-22T07:38:02.215Z,13.70
2022-08-22T07:40:43.561Z,13.80
2022-08-22T07:43:30.884Z,13.90
2022-08-22T07:46:38.744Z,14.00
2022-08-22T07:49:21.813Z,14.10
2022-08-22T07:52:01.108Z,14.20
2022-08-22T07:54:47.155Z,14.30
2022-08-22T07:57:30.309Z,14.40
2022-08-22T08:00:01.453Z,14.54
2022-08-22T08:02:30.081Z,14.60
2022-08-22T08:05:00.563Z,14.70
2022-08-22T08:07:30.385Z,14.80
2022-08-22T08:10:13.124Z,14.90
2022-08-22T08:13:01.755Z,15.00
2022-08-22T08:15:36.148Z,15.18
2022-08-22T08:18:12.383Z,15.28
2022-08-22T08:20:40.348Z,15.30
2022-08-22T08:23:12.024Z,15.48
2022-08-22T08:25:57.280Z,15.56
2022-08-22T08:28:34.822Z,15.70
2022-08-22T08:31:13.714Z,15.80
2022-08-22T08:33:46.437Z,15.90
2022-08-22T08:36:36.954Z,16.10
2022-08-22T08:39:28.549Z,16.20
2022-08-22T08:43:15.209Z,16.32
2022-08-22T08:46:38.767Z,16.50
2022-08-22T08:49:33.634Z,16.60
2022-08-22T08:52:24.784Z,16.64
2022-08-22T08:55:19.803Z,16.78
2022-08-22T08:58:27.341Z,16.80
2022-08-22T09:01:31.153Z,16.90
2022-08-22T09:04:23.568Z,17.00
2022-08-22T09:07:01.665Z,17.10
2022-08-22T09:10:05.087Z,17.20
2022-08-22T09:13:11.593Z,17.30
2022-08-22T09:16:25.818Z,17.40
2022-08-22T09:19:16.826Z,17.54
2022-08-22T09:22:27.837Z,17.70
2022-08-22T09:25:16.729Z,17.80
2022-08-22T09:28:18.308Z,17.90
2022-08-22T09:31:51.418Z,18.00
2022-08-22T09:34:44.064Z,18.10
2022-08-22T09:37:33.852Z,18.18
2022-08-22T09:40:29.266Z,18.20
2022-08-22T09:43:14.198Z,18.30
2022-08-22T09:46:20.394Z,18.40
2022-08-22T09:49:20.041Z,18.50
2022-08-22T09:52:15.582Z,18.60
2022-08-22T09:55:39.397Z,18.80
2022-08-22T09:58:27.842Z,18.80
2022-08-22T10:01:36.558Z,18.80
2022-08-22T10:04:07.123Z,18.90
2022-08-22T10:07:22.667Z,18.90
2022-08-22T10:10:26.196Z,19.10
2022-08-22T10:13:16.666Z,19.20
2022-08-22T10:15:55.034Z,19.30
2022-08-22T10:19:00.527Z,19.40
2022-08-22T10:22:15.192Z,19.48
2022-08-22T10:25:21.329Z,19.70
2022-08-22T10:28:31.310Z,19.80
2022-08-22T10:31:27.259Z,19.90
2022-08-22T10:34:13.309Z,19.90
2022-08-22T10:37:13.003Z,19.90
2022-08-22T10:40:11.096Z,19.80
2022-08-22T10:43:02.715Z,19.80
2022-08-22T10:45:37.452Z,19.80
2022-08-22T10:48:05.146Z,19.90
2022-08-22T10:50:49.859Z,20.10
2022-08-22T10:53:55.988Z,20.30
2022-08-22T10:56:32.267Z,20.40
2022-08-22T10:59:38.170Z,20.60
2022-08-22T11:02:18.992Z,20.80
2022-08-22T11:05:25.947Z,20.96
2022-08-22T11:08:19.177Z,20.90
2022-08-22T11:10:54.488Z,20.80
2022-08-22T11:14:03.300Z,20.90
2022-08-22T11:16:57.287Z,21.00
2022-08-22T11:20:01.625Z,21.20
2022-08-22T11:22:42.084Z,21.40
2022-08-22T11:26:05.151Z,21.40
2022-08-22T11:28:46.114Z,21.60
2022-08-22T11:31:40.080Z,21.60
2022-08-22T11:34:47.007Z,21.40
2022-08-22T11:37:23.932Z,21.50
2022-08-22T11:40:34.407Z,21.50
2022-08-22T11:43:40.386Z,21.70
2022-08-22T11:46:30.430Z,21.80
2022-08-22T11:49:39.673Z,21.78
2022-08-22T11:52:53.534Z,21.80
2022-08-22T11:55:58.486Z,21.90
2022-08-22T11:59:14.126Z,22.10
2022-08-22T12:02:13.651Z,22.20
2022-08-22T12:04:53.135Z,22.30
2022-08-22T12:07:43.049Z,22.38
2022-08-22T12:10:17.321Z,22.40
2022-08-22T12:13:12.714Z,22.40
2022-08-22T12:16:22.397Z,22.60
2022-08-22T12:19:24.266Z,22.74
2022-08-22T12:23:01.351Z,22.98
2022-08-22T12:26:16.677Z,23.12
2022-08-22T12:29:39.923Z,23.30
2022-08-22T12:32:43.819Z,23.20
2022-08-22T12:35:31.913Z,23.40
2022-08-22T12:38:46.109Z,23.50
2022-08-22T12:41:36.074Z,23.60
2022-08-22T12:44:40.129Z,23.80
2022-08-22T12:47:56.578Z,23.80
2022-08-22T12:50:32.906Z,23.60
2022-08-22T12:53:27.438Z,23.30
2022-08-22T12:56:17.338Z,23.00
2022-08-22T12:59:07.006Z,22.70
2022-08-22T13:01:44.806Z,22.50
2022-08-22T13:04:32.745Z,22.40
2022-08-22T13:07:08.535Z,22.40
2022-08-22T13:09:48.467Z,22.44
2022-08-22T13:12:31.044Z,22.30
2022-08-22T13:15:23.569Z,22.10
2022-08-22T13:17:53.013Z,22.10
2022-08-22T13:20:37.952Z,22.00
2022-08-22T13:23:27.850Z,22.00
2022-08-22T13:26:14.330Z,22.00
2022-08-22T13:29:25.842Z,22.00
2022-08-22T13:32:01.887Z,22.00
2022-08-22T13:34:55.294Z,22.00
2022-08-22T13:37:37.020Z,21.90
2022-08-22T13:40:29.947Z,21.90
2022-08-22T13:43:12.920Z,21.90
2022-08-22T13:45:54.650Z,21.90
2022-08-22T13:48:42.985Z,22.00
2022-08-22T13:51:37.263Z,22.00
2022-08-22T13:54:36.449Z,22.14
2022-08-22T13:57:43.498Z,22.30
2022-08-22T14:00:56.517Z,22.50
2022-08-22T14:03:38.786Z,22.38
2022-08-22T14:06:32.517Z,22.20
2022-08-22T14:09:31.494Z,22.10
2022-08-22T14:12:17.236Z,22.10
2022-08-22T14:14:54.478Z,22.10
2022-08-22T14:17:30.475Z,22.06
2022-08-22T14:20:12.963Z,21.94
2022-08-22T14:23:04.630Z,21.90
2022-08-22T14:25:40.539Z,21.90
2022-08-22T14:28:31.821Z,21.90
2022-08-22T14:31:13.558Z,21.90
2022-08-22T14:34:10.729Z,21.90
2022-08-22T14:36:59.053Z,21.90
2022-08-22T14:39:42.818Z,21.90
2022-08-22T14:42:27.051Z,22.00
2022-08-22T14:45:15.098Z,22.00
2022-08-22T14:48:14.131Z,22.00
2022-08-22T14:50:56.934Z,22.00
2022-08-22T14:53:40.309Z,21.90
2022-08-22T14:56:11.403Z,21.90
2022-08-22T14:59:02.379Z,21.90
2022-08-22T15:01:51.514Z,21.80
2022-08-22T15:04:39.827Z,21.82
2022-08-22T15:07:10.584Z,21.90
2022-08-22T15:09:56.226Z,21.90
2022-08-22T15:12:35.180Z,21.90
2022-08-22T15:15:12.893Z,21.80
2022-08-22T15:17:50.821Z,21.80
2022-08-22T15:20:38.169Z,21.72
2022-08-22T15:23:22.396Z,21.70
2022-08-22T15:26:03.841Z,21.70
2022-08-22T15:28:52.605Z,21.70
2022-08-22T15:31:22.833Z,21.70
2022-08-22T15:33:52.243Z,21.70
2022-08-22T15:36:26.094Z,21.70
2022-08-22T15:39:31.105Z,21.70
2022-08-22T15:42:00.772Z,21.80
2022-08-22T15:44:38.018Z,21.82
2022-08-22T15:47:41.655Z,22.00
2022-08-22T15:50:47.779Z,22.10
2022-08-22T15:53:33.656Z,22.30
2022-08-22T15:56:07.113Z,22.30
2022-08-22T15:58:40.381Z,22.20
2022-08-22T16:01:25.722Z,22.00
2022-08-22T16:04:06.726Z,21.80
2022-08-22T16:06:53.218Z,21.60
2022-08-22T16:09:49.012Z,21.50
2022-08-22T16:12:50.760Z,21.40
2022-08-22T16:15:54.342Z,21.30
2022-08-22T16:18:33.332Z,21.40
2022-08-22T16:21:05.120Z,21.40
2022-08-22T16:23:51.356Z,21.50
2022-08-22T16:26:41.871Z,21.60
2022-08-22T16:29:17.833Z,21.60
2022-08-22T16:31:48.867Z,21.60
2022-08-22T16:34:16.713Z,21.50
2022-08-22T16:37:03.272Z,21.50
2022-08-22T16:40:06.281Z,21.56
2022-08-22T16:42:41.929Z,21.78
2022-08-22T16:45:20.771Z,21.90
2022-08-22T16:47:58.267Z,22.04
2022-08-22T16:50:40.913Z,22.10
2022-08-22T16:53:45.840Z,22.36
2022-08-22T16:56:33.297Z,22.46
2022-08-22T16:59:26.990Z,22.50
2022-08-22T17:02:26.652Z,22.40
2022-08-22T17:05:10.548Z,22.10
2022-08-22T17:08:00.705Z,21.86
2022-08-22T17:11:19.246Z,21.72
2022-08-22T17:14:17.824Z,21.60
2022-08-22T17:16:58.657Z,21.70
2022-08-22T17:19:35.240Z,21.80
2022-08-22T17:22:38.867Z,21.70
2022-08-22T17:25:21.980Z,21.40
2022-08-22T17:28:22.482Z,21.20
2022-08-22T17:31:21.364Z,21.00
2022-08-22T17:34:09.168Z,20.80
2022-08-22T17:37:03.550Z,20.62
2022-08-22T17:40:00.414Z,20.50
2022-08-22T17:43:03.699Z,20.30
2022-08-22T17:45:59.565Z,20.20
2022-08-22T17:48:46.036Z,20.12
2022-08-22T17:51:43.650Z,20.10
2022-08-22T17:54:22.297Z,20.00
2022-08-22T17:57:07.955Z,20.00
2022-08-22T17:59:59.666Z,19.90
2022-08-22T18:03:07.467Z,19.90
2022-08-22T18:05:53.463Z,19.80
2022-08-22T18:12:07.741Z,19.70
2022-08-22T18:15:02.220Z,19.60
2022-08-22T18:17:44.391Z,19.50
2022-08-22T18:20:25.173Z,19.50
2022-08-22T18:23:21.702Z,19.40
2022-08-22T18:26:27.199Z,19.30
2022-08-22T18:29:19.137Z,19.30
2022-08-22T18:32:31.858Z,19.20
2022-08-22T18:35:16.150Z,19.12
2022-08-22T18:38:19.808Z,19.10
2022-08-22T18:41:24.182Z,19.02
2022-08-22T18:43:55.169Z,19.00
2022-08-22T18:46:38.391Z,18.90
2022-08-22T18:49:24.597Z,18.82
2022-08-22T18:52:18.310Z,18.78
2022-08-22T18:54:58.223Z,18.70
2022-08-22T18:58:11.028Z,18.60
2022-08-22T19:00:45.579Z,18.50
2022-08-22T19:03:43.382Z,18.50
2022-08-22T19:07:00.817Z,18.40
2022-08-22T19:09:43.732Z,18.36
2022-08-22T19:12:31.426Z,18.30
2022-08-22T19:15:08.394Z,18.18
2022-08-22T19:18:15.297Z,18.10
2022-08-22T19:21:01.489Z,17.90
2022-08-22T19:23:40.527Z,17.88
2022-08-22T19:26:41.610Z,17.80
2022-08-22T19:29:17.762Z,17.70
2022-08-22T19:31:54.645Z,17.66
2022-08-22T19:34:40.961Z,17.60
2022-08-22T19:37:30.811Z,17.50
2022-08-22T19:40:11.276Z,17.42
2022-08-22T19:42:44.209Z,17.40
2022-08-22T19:45:28.791Z,17.40
2022-08-22T19:48:13.234Z,17.40
2022-08-22T19:50:45.267Z,17.20
2022-08-22T19:53:40.557Z,17.20
2022-08-22T19:56:28.350Z,17.10
2022-08-22T19:59:24.127Z,17.00
2022-08-22T20:02:01.996Z,16.90
2022-08-22T20:05:29.795Z,16.90
2022-08-22T20:08:06.419Z,16.86
2022-08-22T20:11:16.924Z,16.76
2022-08-22T20:13:45.793Z,16.70
2022-08-22T20:16:23.949Z,16.60
2022-08-22T20:19:07.713Z,16.48
2022-08-22T20:21:42.354Z,16.34
2022-08-22T20:24:46.782Z,16.30
2022-08-22T20:27:23.870Z,16.20
2022-08-22T20:30:03.935Z,16.10
2022-08-22T20:32:47.527Z,16.00
2022-08-22T20:35:26.797Z,15.96
2022-08-22T20:38:06.971Z,15.90
2022-08-22T20:40:56.486Z,15.90
2022-08-22T20:43:37.634Z,15.80
2022-08-22T20:46:24.107Z,15.68
2022-08-22T20:48:56.644Z,15.60
2022-08-22T20:51:28.551Z,15.60
2022-08-22T20:54:10.052Z,15.60
2022-08-22T20:56:52.826Z,15.60
2022-08-22T20:59:40.232Z,15.50
2022-08-22T21:02:14.706Z,15.40
2022-08-22T21:05:00.439Z,15.30
2022-08-22T21:07:36.433Z,15.20
2022-08-22T21:10:45.358Z,15.20
2022-08-22T21:13:25.516Z,15.20
2022-08-22T21:16:00.347Z,15.10
2022-08-22T21:18:36.154Z,15.10
2022-08-22T21:21:30.926Z,15.00
2022-08-22T21:24:08.121Z,15.00
2022-08-22T21:27:01.996Z,14.90
2022-08-22T21:29:34.016Z,14.88
2022-08-22T21:32:14.669Z,14.90
2022-08-22T21:34:48.658Z,14.80
2022-08-22T21:37:44.221Z,14.80
2022-08-22T21:40:33.094Z,14.76
2022-08-22T21:43:08.393Z,14.72
2022-08-22T21:45:38.855Z,14.70
2022-08-22T21:48:56.742Z,14.60
2022-08-22T21:51:40.763Z,14.60
2022-08-22T21:54:40.333Z,14.40
2022-08-22T21:57:10.753Z,14.26
2022-08-22T21:59:52.189Z,14.20
2022-08-22T22:02:37.466Z,14.10
2022-08-22T22:05:16.340Z,14.20
2022-08-22T22:07:47.230Z,14.20
2022-08-22T22:10:20.134Z,14.16
2022-08-22T22:12:51.871Z,14.10
2022-08-22T22:15:26.078Z,14.10
2022-08-22T22:17:55.665Z,14.02
2022-08-22T22:20:26.239Z,14.00
2022-08-22T22:22:55.263Z,13.92
2022-08-22T22:25:38.792Z,13.90
2022-08-22T22:28:25.141Z,13.70
2022-08-22T22:30:53.468Z,13.60
2022-08-22T22:33:26.885Z,13.60
2022-08-22T22:35:58.992Z,13.60
2022-08-22T22:38:26.717Z,13.50
2022-08-22T22:40:54.492Z,13.50
2022-08-22T22:43:22.592Z,13.60
2022-08-22T22:45:50.786Z,13.50
2022-08-22T22:48:24.574Z,13.50
2022-08-22T22:50:54.193Z,13.50
2022-08-22T22:53:40.302Z,13.40
2022-08-22T22:56:16.990Z,13.30
2022-08-22T22:58:45.703Z,13.30
2022-08-22T23:01:23.884Z,13.20
2022-08-22T23:03:58.539Z,13.10
2022-08-22T23:06:31.834Z,13.10
2022-08-22T23:08:59.926Z,13.10
2022-08-22T23:11:30.488Z,13.10
2022-08-22T23:13:58.462Z,13.10
2022-08-22T23:16:28.855Z,13.02
2022-08-22T23:18:56.825Z,13.00
2022-08-22T23:21:29.077Z,12.90
2022-08-22T23:23:59.748Z,12.90
2022-08-22T23:26:29.505Z,12.74
2022-08-22T23:28:58.587Z,12.70
2022-08-22T23:31:31.733Z,12.70
2022-08-22T23:34:14.062Z,12.70
2022-08-22T23:36:46.257Z,12.70
2022-08-22T23:39:16.374Z,12.60
2022-08-22T23:41:46.864Z,12.60
2022-08-22T23:44:19.856Z,12.60
2022-08-22T23:46:48.714Z,12.50
2022-08-22T23:49:20.131Z,12.50
2022-08-22T23:51:49.526Z,12.50
2022-08-22T23:54:18.704Z,12.40
2022-08-22T23:56:54.609Z,12.34
2022-08-22T23:59:30.537Z,12.30
